Time;durP1;ratioP1;P1;durP2;ratioP2;P2;SDS_P1;SDS_P2;PMS_P1;PMS_P2;Temp;Humidity;BMP_temperature;BMP_pressure;BME280_temperature;BME280_humidity;BME280_pressure;Samples;Min_cycle;Max_cycle;Signal;HPM_P1;HPM_P2
2021/07/19 00:01:54;;;;;;;6.72;5.75;;;;;;;22.87;76.23;98992.45;1745316;81;21063;-55
2021/07/19 00:04:21;;;;;;;6.95;4.72;;;;;;;22.84;76.28;98987.80;1747075;79;21083;-56
2021/07/19 00:06:47;;;;;;;18.30;5.33;;;;;;;22.82;76.41;98982.98;1750035;80;21060;-55
2021/07/19 00:09:14;;;;;;;8.50;6.62;;;;;;;22.78;76.43;98985.75;1745416;80;21061;-55
2021/07/19 00:11:42;;;;;;;14.13;6.75;;;;;;;22.75;76.52;98981.95;1747796;81;20981;-56
2021/07/19 00:14:09;;;;;;;9.60;6.03;;;;;;;22.72;76.62;98984.48;1750466;79;21057;-56
2021/07/19 00:16:37;;;;;;;7.83;5.85;;;;;;;22.69;76.71;98979.36;1746010;79;21090;-55
2021/07/19 00:19:03;;;;;;;10.65;5.03;;;;;;;22.67;76.84;98980.55;1747826;79;23071;-56
2021/07/19 00:22:33;;;;;;;10.08;6.12;;;;;;;22.68;77.11;98972.16;1792528;78;23329;-55
2021/07/19 00:25:00;;;;;;;12.60;5.75;;;;;;;22.62;77.21;98972.84;1775609;78;20950;-53
2021/07/19 00:27:28;;;;;;;7.90;5.83;;;;;;;22.63;77.04;98969.04;1778772;78;21010;-54
2021/07/19 00:29:54;;;;;;;12.90;6.65;;;;;;;22.62;76.92;98970.09;1774273;78;21319;-54
2021/07/19 00:32:20;;;;;;;14.90;5.83;;;;;;;22.59;76.87;98978.14;1776099;78;20978;-54
2021/07/19 00:34:46;;;;;;;16.40;6.12;;;;;;;22.57;76.86;98973.33;1774436;78;20956;-55
2021/07/19 00:37:14;;;;;;;9.45;4.97;;;;;;;22.57;76.88;98973.84;1775032;78;21004;-54
2021/07/19 00:39:42;;;;;;;11.75;6.12;;;;;;;22.53;76.88;98969.22;1777346;79;20867;-55
2021/07/19 00:42:09;;;;;;;12.93;4.90;;;;;;;22.53;76.90;98966.98;1778973;78;21504;-55
2021/07/19 00:44:35;;;;;;;10.38;5.83;;;;;;;22.53;76.95;98966.98;1781571;78;21385;-54
2021/07/19 00:47:01;;;;;;;10.80;6.58;;;;;;;22.53;76.94;98963.73;1780458;78;20910;-55
2021/07/19 00:49:31;;;;;;;9.05;6.72;;;;;;;22.53;76.91;98962.88;1779453;78;21519;-54
2021/07/19 00:51:58;;;;;;;10.45;7.20;;;;;;;22.53;76.88;98965.63;1749569;78;21405;-55
2021/07/19 00:54:25;;;;;;;8.80;6.40;;;;;;;22.51;76.85;98971.27;1776501;78;21587;-54
2021/07/19 00:56:55;;;;;;;6.78;6.08;;;;;;;22.49;76.78;98965.08;1777462;78;20974;-54
2021/07/19 00:59:23;;;;;;;8.98;5.65;;;;;;;22.48;76.73;98965.25;1751631;78;20879;-54
2021/07/19 01:01:50;;;;;;;10.75;6.42;;;;;;;22.47;76.75;98969.88;1776545;78;20980;-54
2021/07/19 01:04:18;;;;;;;11.48;6.67;;;;;;;22.46;76.88;98966.78;1780956;78;21117;-54
2021/07/19 01:06:46;;;;;;;7.20;6.05;;;;;;;22.45;77.01;98962.86;1778143;78;21407;-54
2021/07/19 01:09:13;;;;;;;9.58;5.67;;;;;;;22.45;77.13;98969.20;1775413;78;21657;-55
2021/07/19 01:11:40;;;;;;;10.98;6.35;;;;;;;22.43;77.16;98959.42;1777718;78;21572;-54
2021/07/19 01:14:06;;;;;;;8.38;7.03;;;;;;;22.42;77.18;98957.19;1778831;78;20871;-55
2021/07/19 01:16:36;;;;;;;7.60;6.80;;;;;;;22.42;77.17;98961.30;1774510;78;21614;-54
2021/07/19 01:19:02;;;;;;;11.10;7.12;;;;;;;22.43;77.18;98961.66;1777533;78;21034;-54
2021/07/19 01:22:07;;;;;;;11.50;7.30;;;;;;;22.43;77.22;98956.17;1769247;78;21029;-55
2021/07/19 01:24:51;;;;;;;15.88;8.05;;;;;;;22.43;77.23;98961.66;1767543;79;20966;-54
2021/07/19 01:27:32;;;;;;;8.93;7.78;;;;;;;22.43;77.29;98957.54;1765168;79;21558;-54
2021/07/19 01:29:59;;;;;;;10.15;7.78;;;;;;;22.44;77.31;98959.27;1763021;79;21146;-56
2021/07/19 01:32:26;;;;;;;8.95;8.08;;;;;;;22.43;77.21;98947.09;1761449;79;21136;-56
2021/07/19 01:34:52;;;;;;;13.22;8.15;;;;;;;22.43;77.04;98955.31;1764207;79;21093;-56
2021/07/19 01:37:19;;;;;;;10.20;8.15;;;;;;;22.41;76.98;98953.24;1758283;79;21069;-55
2021/07/19 01:40:07;;;;;;;9.20;7.67;;;;;;;22.39;76.97;98957.52;1764884;79;21389;-58
2021/07/19 01:42:37;;;;;;;10.80;8.28;;;;;;;22.37;76.96;98960.11;1765843;79;21275;-58
2021/07/19 01:45:07;;;;;;;10.03;7.53;;;;;;;22.34;76.97;98962.66;1743554;79;20963;-58
2021/07/19 01:47:34;;;;;;;9.25;8.05;;;;;;;22.32;76.97;98958.36;1740378;79;21456;-58
2021/07/19 01:50:02;;;;;;;8.70;7.42;;;;;;;22.29;77.00;98954.06;1762486;79;21616;-55
2021/07/19 01:52:30;;;;;;;10.75;8.15;;;;;;;22.26;77.03;98955.27;1763577;79;20911;-55
2021/07/19 01:54:58;;;;;;;7.45;6.47;;;;;;;22.25;77.13;98955.44;1766889;79;21807;-56
2021/07/19 01:57:25;;;;;;;11.70;7.35;;;;;;;22.25;77.10;98955.44;1764325;79;21111;-56
2021/07/19 01:59:54;;;;;;;8.58;7.70;;;;;;;22.24;77.16;98952.34;1741309;79;21469;-55
2021/07/19 02:02:23;;;;;;;10.20;7.55;;;;;;;22.24;77.26;98954.58;1727039;79;21418;-56
2021/07/19 02:04:51;;;;;;;8.33;6.85;;;;;;;22.24;77.33;98950.97;1762195;79;21060;-56
2021/07/19 02:07:20;;;;;;;9.53;7.58;;;;;;;22.24;77.41;98954.58;1762850;79;21126;-56
2021/07/19 02:09:48;;;;;;;7.05;6.33;;;;;;;22.24;77.44;98953.72;1766952;79;20903;-55
2021/07/19 02:12:17;;;;;;;8.18;7.25;;;;;;;22.22;77.46;98953.88;1759981;79;21094;-56
2021/07/19 02:14:45;;;;;;;10.30;7.03;;;;;;;22.21;77.47;98956.27;1761770;79;21049;-56
2021/07/19 02:17:14;;;;;;;13.70;7.85;;;;;;;22.20;77.40;98961.41;1760932;79;21062;-55
2021/07/19 02:19:40;;;;;;;13.98;8.43;;;;;;;22.20;77.34;98964.14;1700428;82;21112;-56
2021/07/19 02:22:09;;;;;;;11.03;8.20;;;;;;;22.17;77.25;98966.38;1743679;79;21014;-55
2021/07/19 02:24:52;;;;;;;8.73;6.83;;;;;;;22.15;77.32;98970.65;1759336;79;21612;-55
2021/07/19 02:27:19;;;;;;;6.30;5.65;;;;;;;22.14;77.40;98971.67;1763317;79;21553;-56
2021/07/19 02:29:46;;;;;;;7.28;4.55;;;;;;;22.13;77.47;98971.32;1761739;79;21706;-55
2021/07/19 02:32:15;;;;;;;13.08;5.20;;;;;;;22.13;77.58;98978.17;1763595;79;21082;-55
2021/07/19 02:34:44;;;;;;;12.28;5.33;;;;;;;22.14;77.63;98984.52;1763842;79;20958;-55
2021/07/19 02:37:12;;;;;;;15.98;4.40;;;;;;;22.14;77.61;98980.41;1763609;79;21012;-55
2021/07/19 02:39:40;;;;;;;12.10;4.70;;;;;;;22.14;77.56;98977.15;1759665;79;20921;-55
2021/07/19 02:42:08;;;;;;;10.08;4.83;;;;;;;22.15;77.56;98976.64;1767311;79;21350;-56
2021/07/19 02:44:36;;;;;;;10.93;4.97;;;;;;;22.15;77.54;98981.61;1764951;79;21123;-56
2021/07/19 02:47:06;;;;;;;7.10;5.30;;;;;;;22.14;77.53;98982.63;1763227;79;21412;-58
2021/07/19 02:49:33;;;;;;;12.25;6.03;;;;;;;22.14;77.45;98978.52;1762847;79;21423;-58
2021/07/19 02:52:01;;;;;;;8.55;5.53;;;;;;;22.14;77.46;98978.52;1740601;79;21991;-58
2021/07/19 02:54:27;;;;;;;7.90;5.42;;;;;;;22.15;77.47;98983.49;1766219;79;22383;-57
2021/07/19 02:56:54;;;;;;;11.93;5.65;;;;;;;22.16;77.50;98988.81;1740822;79;21645;-57
2021/07/19 02:59:22;;;;;;;8.48;6.35;;;;;;;22.18;77.48;98989.52;1741917;79;21078;-58
2021/07/19 03:01:52;;;;;;;7.58;6.85;;;;;;;22.20;77.56;98987.44;1761779;79;21438;-57
2021/07/19 03:04:18;;;;;;;9.13;4.90;;;;;;;22.22;77.57;98990.02;1760255;79;21058;-57
2021/07/19 03:06:48;;;;;;;7.87;6.50;;;;;;;22.23;77.67;98984.38;1763281;79;21556;-57
2021/07/19 03:09:16;;;;;;;8.45;6.28;;;;;;;22.25;77.68;98989.70;1761034;79;21158;-58
2021/07/19 03:11:48;;;;;;;8.95;4.53;;;;;;;22.25;77.78;98985.59;1718032;80;21054;-58
2021/07/19 03:14:21;;;;;;;9.88;5.85;;;;;;;22.27;77.91;98986.29;1765253;79;21652;-57
2021/07/19 03:16:49;;;;;;;8.68;6.25;;;;;;;22.30;78.03;98988.67;1759428;79;21017;-57
2021/07/19 03:19:17;;;;;;;8.60;6.80;;;;;;;22.34;78.16;98991.45;1763346;79;21134;-58
2021/07/19 03:21:44;;;;;;;18.42;12.80;;;;;;;22.37;78.17;99006.72;1764141;79;21067;-57
2021/07/19 03:24:13;;;;;;;24.40;13.58;;;;;;;22.40;78.37;99010.47;1760193;79;21067;-58
2021/07/19 03:26:41;;;;;;;18.67;14.47;;;;;;;22.43;78.80;99016.49;1739497;80;21110;-57
2021/07/19 03:29:08;;;;;;;18.70;15.13;;;;;;;22.48;79.13;99015.47;1761687;79;21037;-58
2021/07/19 03:31:36;;;;;;;15.85;14.38;;;;;;;22.54;79.37;99017.53;1765559;79;20950;-58
2021/07/19 03:34:05;;;;;;;18.70;15.38;;;;;;;22.59;79.46;99015.16;1764278;79;22438;-57
2021/07/19 03:36:32;;;;;;;18.92;16.27;;;;;;;22.65;79.51;99024.59;1744930;79;21200;-58
2021/07/19 03:38:59;;;;;;;20.85;15.50;;;;;;;22.71;79.57;99021.72;1724522;81;21017;-57
2021/07/19 03:41:30;;;;;;;19.05;16.37;;;;;;;22.77;79.50;99023.80;1763094;79;21723;-57
2021/07/19 03:43:58;;;;;;;19.57;14.87;;;;;;;22.83;79.45;99026.72;1763121;79;20895;-58
2021/07/19 03:46:25;;;;;;;21.50;15.50;;;;;;;22.89;79.30;99028.78;1767105;79;20965;-58
2021/07/19 03:48:51;;;;;;;20.17;15.70;;;;;;;22.95;79.13;99017.15;1743467;79;20982;-59
2021/07/19 03:51:18;;;;;;;23.62;16.23;;;;;;;23.03;78.88;99020.41;1769175;79;20915;-58
2021/07/19 03:53:46;;;;;;;17.77;14.87;;;;;;;23.11;78.57;99021.78;1764451;79;20912;-57
2021/07/19 03:56:12;;;;;;;19.67;14.98;;;;;;;23.19;78.33;99026.41;1765601;79;20981;-58
2021/07/19 03:58:39;;;;;;;18.52;14.95;;;;;;;23.27;78.41;99019.55;1763947;79;21864;-58
2021/07/19 04:01:05;;;;;;;19.02;14.65;;;;;;;23.33;78.35;99021.08;1741809;79;20959;-58
2021/07/19 04:03:45;;;;;;;14.70;12.70;;;;;;;23.42;78.31;99023.82;1741503;79;21422;-58
2021/07/19 04:06:04;;;;;;;20.57;13.85;;;;;;;23.49;78.32;99017.48;1765370;79;21306;-58
2021/07/19 04:08:35;;;;;;;15.13;13.40;;;;;;;23.58;78.10;99022.45;1769257;79;20911;-58
2021/07/19 04:11:01;;;;;;;14.98;13.43;;;;;;;23.65;77.71;99014.71;1768264;79;21783;-58
2021/07/19 04:13:32;;;;;;;23.60;13.50;;;;;;;23.73;77.78;99010.57;1763197;79;21441;-58
2021/07/19 04:16:00;;;;;;;20.40;12.70;;;;;;;23.82;77.42;99015.53;1769880;79;20962;-58
2021/07/19 04:18:27;;;;;;;15.98;14.25;;;;;;;23.91;76.99;99011.73;1765709;79;20946;-59
2021/07/19 04:20:55;;;;;;;20.30;14.43;;;;;;;24.00;76.85;99017.55;1743459;80;20994;-58
2021/07/19 04:23:23;;;;;;;19.95;15.38;;;;;;;24.06;76.43;99011.36;1773016;79;21745;-59
2021/07/19 04:25:53;;;;;;;21.02;16.65;;;;;;;24.14;76.15;99014.08;1773031;79;21273;-58
2021/07/19 04:28:21;;;;;;;16.48;14.87;;;;;;;24.22;75.53;99006.34;1769558;79;21931;-59
2021/07/19 04:30:47;;;;;;;22.13;15.43;;;;;;;24.30;74.97;99005.44;1772651;79;21511;-58
2021/07/19 04:33:18;;;;;;;17.52;14.63;;;;;;;24.39;74.66;99009.35;1716538;79;21532;-59
2021/07/19 04:35:49;;;;;;;15.15;13.58;;;;;;;24.48;74.47;99011.55;1769221;79;21146;-59
2021/07/19 04:38:21;;;;;;;16.50;14.07;;;;;;;24.57;74.16;99009.60;1776743;79;21042;-59
2021/07/19 04:40:52;;;;;;;21.05;16.17;;;;;;;24.66;73.81;99009.89;1774202;79;21050;-59
2021/07/19 04:43:18;;;;;;;20.55;16.27;;;;;;;24.75;73.35;99006.88;1769698;79;21077;-58
2021/07/19 04:45:45;;;;;;;17.50;15.50;;;;;;;24.85;73.03;99009.40;1771078;79;21510;-58
2021/07/19 04:48:14;;;;;;;20.65;14.55;;;;;;;24.93;72.76;99008.52;1767328;79;21525;-58
2021/07/19 04:50:41;;;;;;;22.27;13.90;;;;;;;25.01;72.31;99005.73;1774111;79;21050;-58
2021/07/19 04:53:10;;;;;;;20.40;14.93;;;;;;;25.07;71.83;99006.36;1770063;79;21051;-58
2021/07/19 04:55:38;;;;;;;13.55;11.78;;;;;;;25.15;71.53;98998.03;1771033;79;21268;-58
2021/07/19 04:58:05;;;;;;;16.95;11.83;;;;;;;25.23;71.53;99000.20;1773521;79;21097;-58
2021/07/19 05:00:33;;;;;;;15.03;13.00;;;;;;;25.32;71.46;98998.75;1768286;79;21113;-58
2021/07/19 05:03:01;;;;;;;17.35;13.28;;;;;;;25.40;71.46;98999.53;1767124;79;21502;-58
2021/07/19 05:05:27;;;;;;;21.77;14.25;;;;;;;25.50;71.33;98996.52;1769846;79;21008;-58
2021/07/19 05:07:55;;;;;;;26.10;13.85;;;;;;;25.59;71.29;98991.29;1771163;79;20888;-57
2021/07/19 05:10:23;;;;;;;23.38;13.15;;;;;;;25.68;71.10;98987.41;1748290;79;21527;-59
2021/07/19 05:12:51;;;;;;;23.25;12.60;;;;;;;25.75;70.47;98981.98;1771930;79;22063;-58
2021/07/19 05:15:18;;;;;;;18.82;13.45;;;;;;;25.82;70.59;98981.56;1772571;79;21128;-58
2021/07/19 05:17:45;;;;;;;22.07;12.10;;;;;;;25.90;70.62;98991.11;1768974;79;21098;-58
2021/07/19 05:20:16;;;;;;;19.85;12.28;;;;;;;25.98;70.70;98991.02;1770794;79;21055;-59
2021/07/19 05:22:51;;;;;;;17.75;11.03;;;;;;;26.06;70.67;98985.92;1769064;79;21076;-58
2021/07/19 05:25:25;;;;;;;18.50;12.20;;;;;;;26.16;70.34;98997.52;1767496;79;22365;-58
2021/07/19 05:28:04;;;;;;;16.40;12.03;;;;;;;26.26;70.15;98990.70;1762444;79;21101;-58
2021/07/19 05:30:30;;;;;;;20.75;13.38;;;;;;;26.36;69.73;98991.79;1764163;79;21548;-58
2021/07/19 05:32:56;;;;;;;17.85;11.65;;;;;;;26.43;68.82;98987.20;1763091;79;21032;-58
2021/07/19 05:35:23;;;;;;;15.05;11.03;;;;;;;26.50;68.80;98996.41;1762116;79;21069;-58
2021/07/19 05:37:49;;;;;;;12.75;11.03;;;;;;;26.54;68.64;98989.44;1761562;79;21112;-59
2021/07/19 05:40:16;;;;;;;16.50;10.93;;;;;;;26.59;68.61;98985.59;1760971;79;21041;-58
2021/07/19 05:42:43;;;;;;;21.27;11.73;;;;;;;26.65;68.53;98983.42;1766313;79;21065;-59
2021/07/19 05:45:10;;;;;;;19.65;10.82;;;;;;;26.74;68.45;98991.05;1762317;79;21134;-59
2021/07/19 05:47:37;;;;;;;18.30;12.45;;;;;;;26.81;67.37;98991.98;1764116;79;21148;-58
2021/07/19 05:50:06;;;;;;;17.15;11.20;;;;;;;26.89;67.10;98989.62;1765269;79;21164;-59
2021/07/19 05:52:33;;;;;;;21.00;12.07;;;;;;;26.95;66.85;98989.74;1763028;79;21626;-58
2021/07/19 05:55:02;;;;;;;12.93;11.63;;;;;;;26.99;66.54;98993.80;1762039;79;21069;-59
2021/07/19 05:57:28;;;;;;;15.40;11.97;;;;;;;27.04;66.93;98990.47;1763961;79;21060;-59
2021/07/19 05:59:56;;;;;;;19.27;10.93;;;;;;;27.10;66.59;98991.05;1760487;79;21139;-59
2021/07/19 06:02:25;;;;;;;15.40;10.80;;;;;;;27.17;66.05;98989.20;1760715;79;21115;-59
2021/07/19 06:04:52;;;;;;;14.03;9.68;;;;;;;27.24;65.36;98992.02;1761399;79;21049;-56
2021/07/19 06:07:19;;;;;;;13.50;10.53;;;;;;;27.31;65.07;98990.16;1764385;79;21054;-56
2021/07/19 06:09:45;;;;;;;17.52;11.28;;;;;;;27.37;65.39;98998.53;1760677;79;21360;-56
2021/07/19 06:12:13;;;;;;;20.85;11.35;;;;;;;27.44;65.08;98994.44;1762208;79;21479;-56
2021/07/19 06:14:40;;;;;;;15.58;11.48;;;;;;;27.52;65.13;99004.48;1762232;79;21816;-56
2021/07/19 06:17:07;;;;;;;14.58;10.00;;;;;;;27.58;64.65;99004.56;1762894;79;21315;-56
2021/07/19 06:19:33;;;;;;;11.05;9.85;;;;;;;27.64;64.46;99002.92;1762587;79;21594;-56
2021/07/19 06:21:59;;;;;;;13.95;8.85;;;;;;;27.71;64.50;99001.06;1763018;79;21510;-56
2021/07/19 06:24:26;;;;;;;11.20;10.05;;;;;;;27.78;63.77;99001.44;1760814;79;21044;-56
2021/07/19 06:26:52;;;;;;;14.87;10.65;;;;;;;27.86;63.51;99001.80;1762826;79;21135;-57
2021/07/19 06:29:19;;;;;;;18.52;10.60;;;;;;;27.93;63.70;98996.30;1760721;79;21085;-56
2021/07/19 06:31:45;;;;;;;16.27;10.30;;;;;;;28.01;63.21;99005.83;1761939;79;21514;-57
2021/07/19 06:34:11;;;;;;;13.55;10.35;;;;;;;28.07;62.54;99005.03;1762358;79;21496;-56
2021/07/19 06:36:39;;;;;;;14.18;8.95;;;;;;;28.10;61.97;99005.46;1761695;79;21662;-56
2021/07/19 06:39:07;;;;;;;12.30;8.85;;;;;;;28.15;61.82;99007.63;1761339;79;21140;-56
2021/07/19 06:41:34;;;;;;;17.48;10.05;;;;;;;28.20;61.57;99002.36;1761112;79;21125;-58
2021/07/19 06:44:00;;;;;;;15.60;9.50;;;;;;;28.24;60.57;99005.05;1765055;79;21073;-58
2021/07/19 06:46:27;;;;;;;12.85;9.85;;;;;;;28.26;60.38;99008.45;1766008;79;20871;-58
2021/07/19 06:48:53;;;;;;;12.40;9.55;;;;;;;28.29;60.12;99004.42;1764081;79;20920;-58
2021/07/19 06:51:19;;;;;;;13.55;9.95;;;;;;;28.31;60.25;99008.70;1765775;79;21094;-57
2021/07/19 06:53:46;;;;;;;11.88;10.40;;;;;;;28.35;60.42;99002.21;1766256;79;20887;-58
2021/07/19 06:56:12;;;;;;;13.55;10.68;;;;;;;28.38;60.24;99015.13;1768045;79;21315;-58
2021/07/19 06:58:39;;;;;;;13.30;9.28;;;;;;;28.39;60.06;99013.20;1765637;79;20915;-58
2021/07/19 07:01:05;;;;;;;12.00;9.78;;;;;;;28.41;59.78;99022.99;1764178;79;20887;-58
2021/07/19 07:03:31;;;;;;;12.30;10.18;;;;;;;28.43;59.62;99018.11;1764839;79;21536;-59
2021/07/19 07:05:57;;;;;;;10.08;9.18;;;;;;;28.46;59.64;99016.33;1763338;79;21014;-58
2021/07/19 07:08:24;;;;;;;14.47;10.68;;;;;;;28.51;59.17;99015.69;1762849;79;21706;-58
2021/07/19 07:10:52;;;;;;;12.18;10.25;;;;;;;28.55;59.34;99015.09;1762654;79;21520;-58
2021/07/19 07:13:18;;;;;;;16.77;11.55;;;;;;;28.62;59.81;99016.49;1765006;79;20905;-58
2021/07/19 07:15:44;;;;;;;13.45;10.90;;;;;;;28.70;60.27;99005.77;1764965;79;21448;-58
2021/07/19 07:18:11;;;;;;;15.83;10.45;;;;;;;28.77;60.33;98997.83;1764306;79;21359;-57
2021/07/19 07:20:37;;;;;;;14.98;11.53;;;;;;;28.85;60.38;98998.16;1766077;79;21316;-57
2021/07/19 07:23:05;;;;;;;14.28;10.55;;;;;;;28.92;59.88;98990.75;1761733;79;21392;-59
2021/07/19 07:25:32;;;;;;;17.10;10.90;;;;;;;28.98;59.70;98984.36;1764343;79;21093;-58
2021/07/19 07:27:58;;;;;;;16.27;11.50;;;;;;;29.06;59.93;98977.77;1763612;79;21145;-58
2021/07/19 07:30:25;;;;;;;17.00;10.58;;;;;;;29.10;59.30;98977.12;1762195;79;21030;-58
2021/07/19 07:32:53;;;;;;;17.42;11.88;;;;;;;29.14;59.24;98978.41;1763709;79;21399;-59
2021/07/19 07:35:19;;;;;;;19.12;12.58;;;;;;;29.19;59.18;98977.23;1763533;79;21050;-58
2021/07/19 07:37:45;;;;;;;19.70;11.83;;;;;;;29.25;58.93;98976.41;1764939;79;20900;-58
2021/07/19 07:40:16;;;;;;;19.73;12.47;;;;;;;29.34;58.70;98968.73;1767720;79;21628;-59
2021/07/19 07:42:42;;;;;;;17.87;12.00;;;;;;;29.39;58.32;98973.13;1764082;79;20950;-59
2021/07/19 07:45:09;;;;;;;18.52;11.78;;;;;;;29.43;57.52;98961.95;1764277;79;21091;-59
2021/07/19 07:47:36;;;;;;;17.92;13.43;;;;;;;29.48;57.29;98959.91;1763188;79;21871;-58
2021/07/19 07:50:05;;;;;;;14.55;11.88;;;;;;;29.53;56.99;98953.17;1761585;79;21111;-58
2021/07/19 07:52:32;;;;;;;20.02;12.25;;;;;;;29.60;56.89;98947.11;1760723;79;21069;-58
2021/07/19 07:54:58;;;;;;;21.05;13.85;;;;;;;29.67;56.49;98943.26;1760117;79;21042;-59
2021/07/19 07:57:24;;;;;;;16.30;12.98;;;;;;;29.75;56.48;98934.39;1761637;79;21452;-59
2021/07/19 07:59:51;;;;;;;25.72;15.25;;;;;;;29.82;56.15;98916.66;1762506;79;21795;-58
2021/07/19 08:02:17;;;;;;;21.35;16.37;;;;;;;29.91;55.36;98913.96;1762784;79;21064;-58
2021/07/19 08:04:44;;;;;;;16.82;13.62;;;;;;;29.99;55.14;98904.05;1760688;79;21681;-59
2021/07/19 08:07:10;;;;;;;22.55;12.78;;;;;;;30.07;55.09;98894.09;1763247;79;21107;-58
2021/07/19 08:09:36;;;;;;;19.95;12.43;;;;;;;30.16;55.17;98896.61;1763705;79;21035;-59
2021/07/19 08:12:03;;;;;;;24.72;13.22;;;;;;;30.24;54.99;98896.36;1764685;79;21046;-58
2021/07/19 08:14:30;;;;;;;17.50;11.90;;;;;;;30.28;53.89;98902.66;1761079;79;21091;-59
2021/07/19 08:16:56;;;;;;;18.45;11.00;;;;;;;30.27;54.20;98916.22;1763468;79;22367;-58
2021/07/19 08:19:24;;;;;;;15.90;12.85;;;;;;;30.26;54.12;98915.05;1760691;79;21105;-59
2021/07/19 08:21:52;;;;;;;21.65;11.85;;;;;;;30.22;54.27;98909.06;1761390;79;21101;-59
2021/07/19 08:24:19;;;;;;;12.60;11.38;;;;;;;30.16;54.19;98891.06;1762286;79;21050;-59
2021/07/19 08:26:45;;;;;;;12.50;11.00;;;;;;;30.07;54.74;98907.11;1762449;79;21086;-59
2021/07/19 08:29:12;;;;;;;14.00;10.75;;;;;;;29.97;55.57;98936.70;1762795;79;21256;-59
2021/07/19 08:31:44;;;;;;;16.80;11.22;;;;;;;29.89;55.93;98961.88;1760631;79;21061;-57
2021/07/19 08:34:06;;;;;;;19.17;6.28;;;;;;;29.79;56.23;98985.03;1764243;79;21032;-58
2021/07/19 08:36:33;;;;;;;11.90;3.27;;;;;;;29.62;54.49;98962.98;1765650;79;20994;-58
2021/07/19 08:38:59;;;;;;;8.45;2.52;;;;;;;29.08;52.27;99056.85;1760301;79;21038;-57
2021/07/19 08:41:26;;;;;;;5.45;1.80;;;;;;;28.37;53.45;99061.84;1758939;79;21280;-57
2021/07/19 08:43:52;;;;;;;6.50;1.50;;;;;;;27.73;55.40;99090.20;1763362;79;21081;-57
2021/07/19 08:46:18;;;;;;;2.65;1.12;;;;;;;27.13;56.42;99089.25;1761214;79;21073;-57
2021/07/19 08:48:50;;;;;;;7.15;2.98;;;;;;;26.50;57.72;99085.24;1762837;79;21058;-58
2021/07/19 08:51:13;;;;;;;3.50;2.33;;;;;;;25.92;59.21;99111.20;1765923;79;21659;-57
2021/07/19 08:53:39;;;;;;;7.47;1.90;;;;;;;25.51;60.58;99178.19;1766346;79;21092;-58
2021/07/19 08:56:07;;;;;;;8.83;2.47;;;;;;;25.17;61.63;99190.97;1762871;79;21074;-56
2021/07/19 08:58:34;;;;;;;7.05;2.80;;;;;;;24.94;62.56;99205.17;1762467;79;21091;-56
2021/07/19 09:01:02;;;;;;;5.87;3.25;;;;;;;24.74;63.08;99202.48;1762274;79;21082;-56
2021/07/19 09:03:29;;;;;;;2.72;1.70;;;;;;;24.52;64.79;99209.59;1763914;79;21228;-56
2021/07/19 09:05:55;;;;;;;8.90;3.52;;;;;;;24.30;65.55;99187.81;1762844;79;21389;-58
2021/07/19 09:08:22;;;;;;;3.90;2.67;;;;;;;24.01;66.45;99192.45;1763790;79;21476;-58
2021/07/19 09:10:48;;;;;;;4.75;2.20;;;;;;;23.78;67.56;99187.82;1762137;79;21424;-57
2021/07/19 09:13:17;;;;;;;7.80;2.05;;;;;;;23.59;68.49;99182.14;1766970;79;21005;-59
2021/07/19 09:15:45;;;;;;;3.27;1.98;;;;;;;23.48;69.24;99185.20;1761920;79;21681;-58
2021/07/19 09:18:15;;;;;;;4.30;2.40;;;;;;;23.39;69.91;99170.60;1763020;79;21416;-58
2021/07/19 09:20:43;;;;;;;6.55;2.17;;;;;;;23.36;70.63;99155.31;1741939;79;21100;-58
2021/07/19 09:23:10;;;;;;;9.13;2.70;;;;;;;23.33;70.80;99133.67;1766802;79;21507;-57
2021/07/19 09:25:37;;;;;;;4.10;2.33;;;;;;;23.32;70.81;99129.71;1765266;79;21054;-57
2021/07/19 09:28:09;;;;;;;4.15;2.08;;;;;;;23.28;70.92;99131.10;1763469;79;20958;-57
2021/07/19 09:30:39;;;;;;;3.98;3.52;;;;;;;23.25;71.31;99132.28;1764981;79;21764;-57
2021/07/19 09:33:16;;;;;;;6.00;3.15;;;;;;;23.18;71.82;99125.77;1766988;79;21458;-56
2021/07/19 09:35:46;;;;;;;3.67;1.92;;;;;;;23.14;72.10;99114.75;1765594;79;21023;-57
2021/07/19 09:38:15;;;;;;;5.08;1.70;;;;;;;23.10;72.67;99088.69;1764682;79;21018;-57
2021/07/19 09:40:44;;;;;;;3.55;2.05;;;;;;;23.04;72.98;99070.16;1765337;79;20995;-56
2021/07/19 09:43:19;;;;;;;4.80;1.52;;;;;;;22.97;73.21;99074.59;1765218;79;21318;-57
2021/07/19 09:45:59;;;;;;;6.95;1.85;;;;;;;22.90;73.45;99090.02;1762286;79;20963;-56
2021/07/19 09:48:25;;;;;;;3.02;1.65;;;;;;;22.78;74.00;99096.34;1765260;79;20915;-56
2021/07/19 09:50:53;;;;;;;5.35;2.52;;;;;;;22.67;74.23;99119.07;1765654;79;21221;-57
2021/07/19 09:53:38;;;;;;;5.83;2.62;;;;;;;22.58;74.10;99127.27;1763905;79;21006;-56
2021/07/19 09:56:16;;;;;;;6.37;3.10;;;;;;;22.53;74.45;99156.22;1765813;79;21113;-57
2021/07/19 09:58:48;;;;;;;6.55;3.55;;;;;;;22.53;74.79;99179.53;1764544;79;21774;-57
2021/07/19 10:01:38;;;;;;;3.85;2.67;;;;;;;22.54;74.89;99162.89;1763402;79;21409;-56
2021/07/19 10:04:16;;;;;;;3.17;2.98;;;;;;;22.54;74.24;99173.86;1764919;79;21006;-56
2021/07/19 10:06:44;;;;;;;8.35;3.30;;;;;;;22.54;73.71;99178.52;1766400;79;20918;-56
2021/07/19 10:09:12;;;;;;;6.85;3.00;;;;;;;22.54;73.74;99177.98;1765092;79;21108;-56
2021/07/19 10:11:42;;;;;;;4.42;2.80;;;;;;;22.52;73.38;99176.44;1764369;79;21350;-56
2021/07/19 10:14:09;;;;;;;8.75;3.15;;;;;;;22.49;73.12;99157.56;1762871;79;20864;-56
2021/07/19 10:16:39;;;;;;;5.17;2.27;;;;;;;22.47;72.65;99141.27;1761731;79;21085;-55
2021/07/19 10:19:05;;;;;;;6.70;2.65;;;;;;;22.46;72.19;99140.05;1763637;79;21026;-55
2021/07/19 10:21:34;;;;;;;3.65;2.55;;;;;;;22.46;72.49;99142.80;1764219;79;21038;-55
2021/07/19 10:24:08;;;;;;;6.00;2.90;;;;;;;22.46;73.13;99155.13;1764880;79;21023;-55
2021/07/19 10:26:37;;;;;;;5.87;2.50;;;;;;;22.46;73.53;99164.22;1762329;79;21143;-55
2021/07/19 10:29:04;;;;;;;3.98;2.30;;;;;;;22.45;73.43;99149.33;1758680;79;21058;-57
2021/07/19 10:31:30;;;;;;;6.33;2.98;;;;;;;22.44;73.37;99148.98;1762163;79;21093;-55
2021/07/19 10:33:58;;;;;;;2.17;1.77;;;;;;;22.42;73.67;99171.58;1761445;79;21183;-54
2021/07/19 10:36:34;;;;;;;4.08;2.45;;;;;;;22.41;74.16;99207.73;1763723;79;21062;-54
2021/07/19 10:39:11;;;;;;;7.00;4.12;;;;;;;22.38;74.49;99234.61;1762226;79;21144;-55
2021/07/19 10:41:38;;;;;;;5.60;3.75;;;;;;;22.32;74.98;99262.17;1762637;79;21133;-56
2021/07/19 10:44:08;;;;;;;5.72;4.03;;;;;;;22.26;75.71;99283.38;1762516;79;21246;-55
2021/07/19 10:46:36;;;;;;;7.08;4.10;;;;;;;22.22;76.34;99295.67;1761622;79;22120;-55
2021/07/19 10:49:08;;;;;;;12.35;3.95;;;;;;;22.19;76.96;99317.94;1763155;79;21399;-55
2021/07/19 10:51:46;;;;;;;6.58;4.28;;;;;;;22.17;77.47;99319.97;1764531;79;21109;-54
2021/07/19 10:54:21;;;;;;;4.85;4.25;;;;;;;22.15;77.76;99295.96;1765303;79;20982;-53
2021/07/19 10:56:51;;;;;;;8.00;3.40;;;;;;;22.15;78.03;99258.95;1764008;79;21751;-54
2021/07/19 10:59:27;;;;;;;7.33;4.05;;;;;;;22.16;78.36;99203.98;1744296;79;21097;-53
2021/07/19 11:01:58;;;;;;;7.62;4.58;;;;;;;22.22;78.57;99143.53;1762050;79;21404;-54
2021/07/19 11:04:25;;;;;;;9.23;4.67;;;;;;;22.23;78.76;99130.17;1764615;79;20954;-54
2021/07/19 11:06:58;;;;;;;8.88;4.05;;;;;;;22.24;78.79;99110.83;1765199;79;21504;-54
2021/07/19 11:09:38;;;;;;;9.18;3.75;;;;;;;22.26;78.77;99088.73;1764518;79;21061;-54
2021/07/19 11:12:16;;;;;;;6.40;3.77;;;;;;;22.26;78.70;99073.16;1766124;79;21069;-54
2021/07/19 11:14:55;;;;;;;8.15;3.35;;;;;;;22.26;78.36;99060.81;1762099;79;21648;-54
2021/07/19 11:17:21;;;;;;;5.12;2.72;;;;;;;22.27;78.22;99057.56;1763271;79;21571;-54
2021/07/19 11:19:49;;;;;;;7.87;3.35;;;;;;;22.25;77.85;99052.75;1764086;79;21104;-54
2021/07/19 11:22:25;;;;;;;5.42;3.50;;;;;;;22.25;77.73;99064.58;1763665;79;21063;-54
2021/07/19 11:24:59;;;;;;;7.37;3.40;;;;;;;22.24;77.73;99077.94;1764765;79;21063;-54
2021/07/19 11:27:38;;;;;;;6.78;3.77;;;;;;;22.23;77.84;99080.83;1771028;79;20947;-54
2021/07/19 11:30:10;;;;;;;4.40;3.30;;;;;;;22.26;78.21;99089.60;1772728;79;21036;-55
2021/07/19 11:32:38;;;;;;;5.83;3.60;;;;;;;22.30;78.35;99092.86;1774729;79;20929;-54